createdAt,value
2023-06-16T00:00:22.932Z,100679.50
2023-06-16T00:02:49.211Z,100718.63
2023-06-16T00:05:15.476Z,100763.03
2023-06-16T00:07:41.764Z,100761.94
2023-06-16T00:10:08.114Z,100799.78
2023-06-16T00:12:34.885Z,100787.66
2023-06-16T00:15:01.152Z,100793.72
2023-06-16T00:17:27.427Z,100818.28
2023-06-16T00:19:56.792Z,100771.72
2023-06-16T00:22:23.053Z,100757.94
2023-06-16T00:24:49.315Z,100849.09
2023-06-16T00:27:15.581Z,100855.84
2023-06-16T00:29:41.875Z,100808.03
2023-06-16T00:32:08.141Z,101132.09
2023-06-16T00:34:34.503Z,101329.97
2023-06-16T00:37:00.761Z,101275.84
2023-06-16T00:39:27.440Z,101129.50
2023-06-16T00:41:53.690Z,100997.22
2023-06-16T00:44:19.957Z,100911.31
2023-06-16T00:46:46.260Z,100863.16
2023-06-16T00:49:12.543Z,100848.81
2023-06-16T00:51:38.805Z,100859.06
2023-06-16T00:54:05.183Z,100996.78
2023-06-16T00:56:31.455Z,100943.16
2023-06-16T00:58:57.720Z,100884.13
2023-06-16T01:01:23.984Z,100896.56
2023-06-16T01:03:53.168Z,100880.19
2023-06-16T01:06:32.429Z,100850.00
2023-06-16T01:09:07.266Z,100850.31
2023-06-16T01:11:36.528Z,100821.78
2023-06-16T01:14:04.421Z,100818.50
2023-06-16T01:16:30.857Z,100809.88
2023-06-16T01:18:57.141Z,100787.72
2023-06-16T01:21:23.349Z,100798.84
2023-06-16T01:23:59.585Z,100795.50
2023-06-16T01:26:26.192Z,100829.63
2023-06-16T01:28:52.454Z,100869.25
2023-06-16T01:31:18.717Z,100883.44
2023-06-16T01:33:45.215Z,100918.59
2023-06-16T01:36:11.506Z,100873.94
2023-06-16T01:38:37.782Z,100905.66
2023-06-16T01:41:04.054Z,100887.44
2023-06-16T01:43:30.309Z,100868.16
2023-06-16T01:45:56.710Z,100865.22
2023-06-16T01:48:23.125Z,100854.38
2023-06-16T01:50:49.445Z,100820.34
2023-06-16T01:53:15.729Z,100852.31
2023-06-16T01:55:46.829Z,100847.53
2023-06-16T01:58:13.092Z,100847.53
2023-06-16T02:00:40.815Z,100824.28
2023-06-16T02:03:08.212Z,100873.44
2023-06-16T02:05:34.554Z,100886.94
2023-06-16T02:08:00.883Z,101102.56
2023-06-16T02:10:27.171Z,101001.16
2023-06-16T02:12:53.556Z,100990.59
2023-06-16T02:15:19.816Z,100906.03
2023-06-16T02:17:46.240Z,101062.25
2023-06-16T02:20:12.865Z,101046.94
2023-06-16T02:22:39.127Z,100974.25
2023-06-16T02:25:05.627Z,100913.22
2023-06-16T02:27:31.924Z,100883.88
2023-06-16T02:29:58.163Z,100929.88
2023-06-16T02:32:24.499Z,100891.56
2023-06-16T02:34:50.892Z,100894.22
2023-06-16T02:37:17.203Z,100902.91
2023-06-16T02:39:43.504Z,100868.38
2023-06-16T02:42:09.774Z,100857.22
2023-06-16T02:44:36.068Z,101042.94
2023-06-16T02:47:02.430Z,101191.50
2023-06-16T02:49:28.758Z,101109.91
2023-06-16T02:51:55.051Z,101192.00
2023-06-16T02:54:21.320Z,101204.69
2023-06-16T02:56:47.580Z,101123.09
2023-06-16T02:59:13.844Z,101108.56
2023-06-16T03:01:40.123Z,101162.72
2023-06-16T03:04:06.383Z,101128.44
2023-06-16T03:06:32.650Z,101130.88
2023-06-16T03:08:58.926Z,101154.88
2023-06-16T03:11:25.247Z,101175.47
2023-06-16T03:13:51.536Z,101183.91
2023-06-16T03:16:17.864Z,101182.88
2023-06-16T03:18:44.198Z,101175.72
2023-06-16T03:21:10.454Z,101027.97
2023-06-16T03:23:36.811Z,100888.28
2023-06-16T03:26:03.072Z,100818.53
2023-06-16T03:28:29.315Z,100801.03
2023-06-16T03:30:55.578Z,100901.53
2023-06-16T03:33:21.835Z,101090.28
2023-06-16T03:35:48.093Z,101040.09
2023-06-16T03:38:14.376Z,100938.19
2023-06-16T03:40:40.653Z,100877.91
2023-06-16T03:43:06.979Z,100852.31
2023-06-16T03:45:33.278Z,100830.34
2023-06-16T03:47:59.573Z,100905.94
2023-06-16T03:50:25.938Z,100840.19
2023-06-16T03:53:05.901Z,100759.81
2023-06-16T03:55:38.437Z,100811.09
2023-06-16T03:58:04.704Z,101057.59
2023-06-16T04:00:30.973Z,101062.59
2023-06-16T04:02:57.306Z,101001.81
2023-06-16T04:05:23.623Z,100945.31
2023-06-16T04:07:49.872Z,100835.63
2023-06-16T04:10:16.219Z,100809.16
2023-06-16T04:12:42.611Z,100840.63
2023-06-16T04:15:08.953Z,100880.78
2023-06-16T04:17:35.282Z,100838.56
2023-06-16T04:20:01.606Z,100816.59
2023-06-16T04:22:27.858Z,100844.53
2023-06-16T04:24:54.120Z,100792.25
2023-06-16T04:27:20.428Z,100781.72
2023-06-16T04:29:46.693Z,100813.66
2023-06-16T04:32:12.955Z,100873.84
2023-06-16T04:34:39.355Z,100849.03
2023-06-16T04:37:05.635Z,100878.34
2023-06-16T04:39:31.912Z,100937.53
2023-06-16T04:41:58.187Z,101010.97
2023-06-16T04:44:24.459Z,101065.69
2023-06-16T04:46:50.736Z,101106.88
2023-06-16T04:49:16.989Z,101120.38
2023-06-16T04:51:43.298Z,101040.63
2023-06-16T04:54:09.553Z,100968.25
2023-06-16T04:56:35.848Z,100944.25
2023-06-16T04:59:02.119Z,100897.44
2023-06-16T05:01:28.375Z,100978.25
2023-06-16T05:03:54.774Z,101029.25
2023-06-16T05:06:21.212Z,101119.59
2023-06-16T05:08:47.463Z,101173.44
2023-06-16T05:11:13.722Z,101196.66
2023-06-16T05:13:39.990Z,101116.47
2023-06-16T05:16:06.302Z,101073.13
2023-06-16T05:18:32.655Z,101121.72
2023-06-16T05:20:59.018Z,101145.50
2023-06-16T05:23:25.316Z,101119.09
2023-06-16T05:25:51.578Z,101068.13
2023-06-16T05:28:17.827Z,101005.31
2023-06-16T05:30:44.185Z,100951.63
2023-06-16T05:33:10.533Z,101066.50
2023-06-16T05:35:37.225Z,101052.25
2023-06-16T05:38:03.492Z,100952.44
2023-06-16T05:40:29.778Z,100861.84
2023-06-16T05:42:56.043Z,100861.00
2023-06-16T05:45:22.386Z,100809.16
2023-06-16T05:47:48.764Z,100840.63
2023-06-16T05:50:15.211Z,100837.91
2023-06-16T05:52:41.519Z,100993.91
2023-06-16T05:55:07.930Z,101125.66
2023-06-16T05:57:34.194Z,101139.13
2023-06-16T06:00:00.482Z,101082.91
2023-06-16T06:02:26.860Z,101067.88
2023-06-16T06:04:53.350Z,101030.34
2023-06-16T06:07:19.856Z,100969.63
2023-06-16T06:09:46.120Z,100947.19
2023-06-16T06:12:12.395Z,100976.50
2023-06-16T06:14:38.763Z,100987.00
2023-06-16T06:17:05.196Z,101060.44
2023-06-16T06:19:31.533Z,101106.94
2023-06-16T06:21:57.833Z,101055.44
2023-06-16T06:24:24.151Z,101003.41
2023-06-16T06:26:50.437Z,100979.59
2023-06-16T06:29:16.718Z,101009.75
2023-06-16T06:31:42.984Z,101027.38
2023-06-16T06:34:09.257Z,101042.22
2023-06-16T06:36:35.569Z,101046.69
2023-06-16T06:39:01.887Z,101029.00
2023-06-16T06:41:28.595Z,100991.44
2023-06-16T06:43:54.863Z,101037.41
2023-06-16T06:46:21.275Z,101034.44
2023-06-16T06:48:47.687Z,101056.69
2023-06-16T06:51:14.094Z,101097.09
2023-06-16T06:53:40.645Z,101102.69
2023-06-16T06:56:06.901Z,101100.63
2023-06-16T06:58:36.289Z,101059.66
2023-06-16T07:01:02.548Z,101034.75
2023-06-16T07:03:28.904Z,101034.75
2023-06-16T07:05:55.247Z,101020.50
2023-06-16T07:08:21.520Z,101010.69
2023-06-16T07:10:47.779Z,101038.13
2023-06-16T07:13:14.018Z,101042.66
2023-06-16T07:15:40.326Z,101031.59
2023-06-16T07:18:06.658Z,101021.34
2023-06-16T07:20:32.984Z,100977.78
2023-06-16T07:22:59.230Z,100939.66
2023-06-16T07:25:25.529Z,100948.75
2023-06-16T07:27:51.780Z,100950.66
2023-06-16T07:30:18.687Z,100944.09
2023-06-16T07:32:45.288Z,100989.50
2023-06-16T07:35:12.000Z,101022.19
2023-06-16T07:37:38.388Z,101037.53
2023-06-16T07:40:05.917Z,101043.66
2023-06-16T07:42:32.295Z,101036.81
2023-06-16T07:44:58.577Z,101023.94
2023-06-16T07:47:24.854Z,101009.22
2023-06-16T07:49:51.136Z,100999.19
2023-06-16T07:52:17.977Z,100989.69
2023-06-16T07:54:44.381Z,100968.28
2023-06-16T07:57:10.660Z,100952.72
2023-06-16T07:59:36.933Z,100949.59
2023-06-16T08:02:03.179Z,100933.94
2023-06-16T08:04:29.624Z,100932.09
2023-06-16T08:06:56.464Z,100915.47
2023-06-16T08:09:22.786Z,100910.94
2023-06-16T08:11:49.109Z,100898.13
2023-06-16T08:14:15.391Z,100896.84
2023-06-16T08:16:41.658Z,100891.03
2023-06-16T08:19:07.960Z,100889.16
2023-06-16T08:21:34.221Z,100877.19
2023-06-16T08:24:00.588Z,100867.78
2023-06-16T08:26:26.919Z,100862.03
2023-06-16T08:28:53.202Z,100863.03
2023-06-16T08:31:19.447Z,100846.56
2023-06-16T08:33:45.750Z,100847.47
2023-06-16T08:36:12.009Z,100829.22
2023-06-16T08:38:39.136Z,100827.69
2023-06-16T08:41:07.164Z,100827.69
2023-06-16T08:43:36.372Z,100817.13
2023-06-16T08:46:02.666Z,100815.84
2023-06-16T08:48:28.964Z,100811.28
2023-06-16T08:50:55.225Z,100801.03
2023-06-16T08:53:21.472Z,100793.19
2023-06-16T08:55:47.760Z,100799.25
2023-06-16T08:58:14.053Z,100788.47
2023-06-16T09:00:40.344Z,100787.75
2023-06-16T09:03:06.847Z,100794.84
2023-06-16T09:05:33.264Z,100784.56
2023-06-16T09:07:59.561Z,100781.38
2023-06-16T09:10:25.880Z,100771.06
2023-06-16T09:12:52.779Z,100776.88
2023-06-16T09:15:19.058Z,100759.28
2023-06-16T09:17:46.810Z,100759.59
2023-06-16T09:20:16.894Z,100749.03
2023-06-16T09:22:43.463Z,100749.25
2023-06-16T09:25:10.445Z,100738.72
2023-06-16T09:27:42.762Z,100743.47
2023-06-16T09:30:09.300Z,100732.69
2023-06-16T09:32:38.678Z,100724.41
2023-06-16T09:35:20.582Z,100718.69
2023-06-16T09:37:50.282Z,100719.44
2023-06-16T09:40:17.164Z,100708.59
2023-06-16T09:42:47.895Z,100703.72
2023-06-16T09:45:14.909Z,100698.94
2023-06-16T09:47:43.230Z,100699.66
2023-06-16T09:50:11.861Z,100695.50
2023-06-16T09:52:38.154Z,100693.59
2023-06-16T09:55:04.592Z,100688.00
2023-06-16T09:57:30.850Z,100688.41
2023-06-16T09:59:57.125Z,100685.22
2023-06-16T10:02:23.448Z,100682.16
2023-06-16T10:04:50.519Z,100677.94
2023-06-16T10:07:16.780Z,100680.03
2023-06-16T10:09:49.390Z,100680.38
2023-06-16T10:12:25.344Z,100679.50
2023-06-16T10:14:51.635Z,100672.91
2023-06-16T10:17:17.985Z,100681.28
2023-06-16T10:19:46.016Z,100678.91
2023-06-16T10:22:12.926Z,100679.47
2023-06-16T10:24:39.547Z,100669.84
2023-06-16T10:27:06.726Z,100677.91
2023-06-16T10:29:32.976Z,100679.81
2023-06-16T10:32:02.757Z,100683.22
2023-06-16T10:34:29.036Z,100682.28
2023-06-16T10:36:55.313Z,100676.53
2023-06-16T10:39:21.573Z,100682.66
2023-06-16T10:41:51.630Z,100661.28
2023-06-16T10:44:27.619Z,100638.25
2023-06-16T10:47:06.323Z,100633.91
2023-06-16T10:49:32.847Z,100667.16
2023-06-16T10:51:59.375Z,100661.06
2023-06-16T10:54:34.643Z,100658.09
2023-06-16T10:59:52.795Z,100649.31
2023-06-16T11:02:20.740Z,100626.69
2023-06-16T11:05:05.928Z,100573.09
2023-06-16T11:07:35.003Z,100597.72
2023-06-16T11:10:01.546Z,100593.28
2023-06-16T11:12:27.821Z,100588.63
2023-06-16T11:14:54.117Z,100569.16
2023-06-16T11:17:20.373Z,100575.38
2023-06-16T11:19:50.950Z,100577.41
2023-06-16T11:22:17.208Z,100614.63
2023-06-16T11:24:43.557Z,100665.00
2023-06-16T11:27:09.851Z,100698.41
2023-06-16T11:29:36.122Z,100556.59
2023-06-16T11:32:02.378Z,100517.69
2023-06-16T11:34:28.870Z,100512.25
2023-06-16T11:36:55.145Z,100562.03
2023-06-16T11:39:21.500Z,100545.78
2023-06-16T11:44:20.056Z,100549.72
2023-06-16T11:46:46.342Z,100612.91
2023-06-16T11:49:12.627Z,100653.34
2023-06-16T11:51:38.890Z,100620.50
2023-06-16T11:54:05.189Z,100570.16
2023-06-16T11:56:31.951Z,100498.16
2023-06-16T11:59:00.645Z,100526.69
2023-06-16T12:01:27.071Z,100499.63
2023-06-16T12:04:04.756Z,100455.53
2023-06-16T12:06:33.274Z,100582.72
2023-06-16T12:08:59.547Z,100568.56
2023-06-16T12:11:26.403Z,100651.69
2023-06-16T12:13:52.683Z,100558.72
2023-06-16T12:16:18.966Z,100513.19
2023-06-16T12:18:45.245Z,100534.28
2023-06-16T12:21:15.101Z,100559.22
2023-06-16T12:23:41.362Z,100492.22
2023-06-16T12:26:08.028Z,100532.50
2023-06-16T12:28:35.930Z,100534.75
2023-06-16T12:31:02.211Z,100583.06
2023-06-16T12:33:28.507Z,100618.50
2023-06-16T12:35:54.781Z,100589.94
2023-06-16T12:38:33.003Z,100566.41
2023-06-16T12:40:59.437Z,100694.34
2023-06-16T12:43:25.727Z,100741.84
2023-06-16T12:45:52.352Z,100692.50
2023-06-16T12:48:18.659Z,100554.47
2023-06-16T12:50:44.961Z,100630.78
2023-06-16T12:53:11.227Z,100512.25
2023-06-16T12:55:37.483Z,100596.41
2023-06-16T12:58:03.807Z,100619.91
2023-06-16T13:00:30.084Z,100488.19
2023-06-16T13:02:56.431Z,100607.06
2023-06-16T13:05:22.816Z,100574.16
2023-06-16T13:07:49.141Z,100473.06
2023-06-16T13:10:15.597Z,100532.31
2023-06-16T13:12:41.857Z,100528.00
2023-06-16T13:15:08.222Z,100584.22
2023-06-16T13:17:36.982Z,100654.09
2023-06-16T13:20:03.334Z,100674.22
2023-06-16T13:22:29.813Z,100486.59
2023-06-16T13:24:56.085Z,100562.63
2023-06-16T13:27:22.343Z,100585.50
2023-06-16T13:29:48.709Z,100390.69
2023-06-16T13:32:15.020Z,100386.00
2023-06-16T13:34:41.308Z,100436.13
2023-06-16T13:37:07.625Z,100446.16
2023-06-16T13:39:33.906Z,100358.97
2023-06-16T13:42:00.238Z,100299.19
2023-06-16T13:44:26.630Z,100430.00
2023-06-16T13:46:52.977Z,100381.72
2023-06-16T13:49:19.308Z,100432.81
2023-06-16T13:51:45.584Z,100375.19
2023-06-16T13:54:12.067Z,100420.81
2023-06-16T13:56:38.563Z,100458.53
2023-06-16T13:59:04.830Z,100487.94
2023-06-16T14:01:31.219Z,100559.88
2023-06-16T14:03:57.515Z,100444.44
2023-06-16T14:06:23.792Z,100542.88
2023-06-16T14:08:50.048Z,100393.97
2023-06-16T14:11:16.343Z,100436.94
2023-06-16T14:13:42.647Z,100345.84
2023-06-16T14:16:08.949Z,100303.94
2023-06-16T14:18:35.248Z,100342.47
2023-06-16T14:21:01.594Z,100335.56
2023-06-16T14:23:27.858Z,100247.81
2023-06-16T14:25:54.139Z,100240.25
2023-06-16T14:28:20.393Z,100168.75
2023-06-16T14:30:46.682Z,100126.50
2023-06-16T14:33:12.975Z,100225.47
2023-06-16T14:35:39.341Z,100053.13
2023-06-16T14:38:05.641Z,100095.78
2023-06-16T14:40:32.471Z,100218.06
2023-06-16T14:42:58.911Z,100212.41
2023-06-16T14:45:25.259Z,100206.94
2023-06-16T14:47:51.922Z,100140.25
2023-06-16T14:50:20.445Z,100147.00
2023-06-16T14:52:47.031Z,100177.69
2023-06-16T14:55:13.320Z,100225.78
2023-06-16T14:57:39.570Z,100316.22
2023-06-16T15:00:07.707Z,100339.63
2023-06-16T15:02:34.188Z,100427.53
2023-06-16T15:05:00.616Z,100461.88
2023-06-16T15:07:26.971Z,100524.84
2023-06-16T15:09:53.256Z,100532.22
2023-06-16T15:12:19.530Z,100569.94
2023-06-16T15:14:45.811Z,100426.41
2023-06-16T15:17:12.089Z,100401.91
2023-06-16T15:19:38.401Z,100355.09
2023-06-16T15:22:04.865Z,100227.03
2023-06-16T15:24:31.146Z,100232.78
2023-06-16T15:26:57.450Z,100176.00
2023-06-16T15:29:23.732Z,100112.88
2023-06-16T15:31:51.023Z,100109.56
2023-06-16T15:34:17.310Z,100060.28
2023-06-16T15:36:43.565Z,100177.88
2023-06-16T15:39:09.966Z,100275.47
2023-06-16T15:41:36.242Z,100272.50
2023-06-16T15:44:02.525Z,100222.41
2023-06-16T15:46:28.889Z,100250.16
2023-06-16T15:48:55.233Z,100222.25
2023-06-16T15:51:21.517Z,100247.28
2023-06-16T15:53:47.875Z,100367.84
2023-06-16T15:56:14.149Z,100382.78
2023-06-16T15:58:40.408Z,100428.75
2023-06-16T16:01:06.746Z,100356.22
2023-06-16T16:03:33.167Z,100367.16
2023-06-16T16:05:59.584Z,100358.59
2023-06-16T16:08:25.843Z,100344.72
2023-06-16T16:10:52.102Z,100318.81
2023-06-16T16:13:18.374Z,99910.06
2023-06-16T16:15:44.654Z,99816.66
2023-06-16T16:18:11.022Z,99840.50
2023-06-16T16:20:37.314Z,99770.44
2023-06-16T16:23:03.567Z,99799.34
2023-06-16T16:25:29.864Z,99985.03
2023-06-16T16:27:56.161Z,99764.13
2023-06-16T16:30:22.707Z,99759.84
2023-06-16T16:32:49.166Z,99549.19
2023-06-16T16:35:15.610Z,99422.47
2023-06-16T16:37:41.889Z,99640.97
2023-06-16T16:40:08.527Z,99639.09
2023-06-16T16:42:34.797Z,99587.94
2023-06-16T16:45:01.078Z,99636.03
2023-06-16T16:47:27.424Z,99579.13
2023-06-16T16:49:53.712Z,99695.50
2023-06-16T16:52:19.990Z,99559.31
2023-06-16T16:54:46.280Z,99491.03
2023-06-16T16:57:12.539Z,99459.66
2023-06-16T16:59:38.852Z,99610.56
2023-06-16T17:02:05.318Z,99620.00
2023-06-16T17:04:31.786Z,99543.59
2023-06-16T17:06:58.057Z,99625.63
2023-06-16T17:09:24.441Z,99474.59
2023-06-16T17:11:50.701Z,99473.03
2023-06-16T17:14:17.010Z,99510.28
2023-06-16T17:16:43.268Z,99534.44
2023-06-16T17:19:09.803Z,99573.66
2023-06-16T17:21:36.142Z,99484.91
2023-06-16T17:24:02.432Z,99503.25
2023-06-16T17:26:28.744Z,99520.81
2023-06-16T17:28:55.021Z,99641.41
2023-06-16T17:31:21.308Z,99794.66
2023-06-16T17:33:47.598Z,99868.78
2023-06-16T17:36:13.862Z,99820.22
2023-06-16T17:38:40.147Z,99799.75
2023-06-16T17:41:06.414Z,99706.75
2023-06-16T17:43:32.686Z,99713.84
2023-06-16T17:45:58.943Z,99693.31
2023-06-16T17:48:25.203Z,99773.16
2023-06-16T17:50:51.462Z,99869.50
2023-06-16T17:53:17.737Z,100049.81
2023-06-16T17:55:44.010Z,100063.66
2023-06-16T17:58:10.290Z,100056.47
2023-06-16T18:00:36.607Z,100066.97
2023-06-16T18:03:02.980Z,100045.16
2023-06-16T18:05:29.342Z,99974.31
2023-06-16T18:07:55.669Z,99988.34
2023-06-16T18:10:22.193Z,99972.63
2023-06-16T18:12:48.766Z,100002.44
2023-06-16T18:15:15.047Z,100034.13
2023-06-16T18:17:41.388Z,100019.47
2023-06-16T18:20:07.852Z,100109.19
2023-06-16T18:22:34.139Z,100213.28
2023-06-16T18:25:00.404Z,100210.97
2023-06-16T18:27:26.708Z,100208.66
2023-06-16T18:29:52.988Z,100232.16
2023-06-16T18:32:19.305Z,100211.16
2023-06-16T18:34:45.618Z,100244.81
2023-06-16T18:37:12.041Z,100316.84
2023-06-16T18:39:38.314Z,100350.97
2023-06-16T18:42:04.680Z,100348.31
2023-06-16T18:44:30.951Z,100319.78
2023-06-16T18:46:57.280Z,100317.78
2023-06-16T18:49:23.543Z,100311.81
2023-06-16T18:51:49.806Z,100317.91
2023-06-16T18:54:16.456Z,100322.44
2023-06-16T18:56:42.714Z,100333.03
2023-06-16T18:59:09.001Z,100377.28
2023-06-16T19:01:35.338Z,100454.50
2023-06-16T19:04:01.828Z,100552.88
2023-06-16T19:06:28.278Z,100607.50
2023-06-16T19:08:54.600Z,100629.94
2023-06-16T19:11:20.965Z,100629.69
2023-06-16T19:13:47.253Z,100561.97
2023-06-16T19:16:16.978Z,100505.06
2023-06-16T19:18:43.489Z,100486.25
2023-06-16T19:21:09.860Z,100458.66
2023-06-16T19:23:36.200Z,100449.97
2023-06-16T19:26:03.093Z,100450.72
2023-06-16T19:28:31.004Z,100471.41
2023-06-16T19:30:57.302Z,100462.38
2023-06-16T19:33:24.978Z,100472.78
2023-06-16T19:35:51.359Z,100489.00
2023-06-16T19:38:17.638Z,100477.91
2023-06-16T19:52:46.093Z,100523.53
2023-06-16T19:55:13.155Z,100605.69
2023-06-16T19:57:40.472Z,100637.03
2023-06-16T20:02:53.800Z,100571.25
2023-06-16T20:05:20.672Z,100590.66
2023-06-16T20:07:47.124Z,100668.81
2023-06-16T20:10:13.398Z,100664.69
2023-06-16T20:12:39.655Z,100622.47
2023-06-16T20:15:06.252Z,100593.13
2023-06-16T20:17:32.569Z,100563.75
2023-06-16T20:19:59.635Z,100544.28
2023-06-16T20:22:25.954Z,100556.94
2023-06-16T20:24:52.282Z,100580.16
2023-06-16T20:27:18.552Z,100577.69
2023-06-16T20:29:44.825Z,100582.88
2023-06-16T20:32:11.162Z,100555.66
2023-06-16T20:34:37.455Z,100567.63
2023-06-16T20:37:03.767Z,100570.66
2023-06-16T20:42:26.097Z,100525.66
2023-06-16T20:44:53.050Z,100539.16
2023-06-16T20:47:19.474Z,100513.94
2023-06-16T20:49:45.779Z,100526.63
2023-06-16T20:52:12.057Z,100496.44
2023-06-16T20:54:38.332Z,100454.53
2023-06-16T20:57:04.677Z,100518.81
2023-06-16T20:59:30.946Z,100541.19
2023-06-16T21:01:57.225Z,100534.66
2023-06-16T21:04:23.504Z,100519.09
2023-06-16T21:06:52.809Z,100518.59
2023-06-16T21:09:19.080Z,100534.84
2023-06-16T21:11:45.375Z,100577.56
2023-06-16T21:14:11.678Z,100637.34
2023-06-16T21:16:38.093Z,100682.53
2023-06-16T21:21:46.259Z,100657.66
2023-06-16T21:24:13.732Z,100593.41
2023-06-16T21:26:40.036Z,100552.16
2023-06-16T21:29:11.764Z,100524.16
2023-06-16T21:31:38.137Z,100490.34
2023-06-16T21:34:04.401Z,100456.41
2023-06-16T21:36:30.684Z,100770.47
2023-06-16T21:38:57.002Z,100768.81
2023-06-16T21:41:23.280Z,100647.59
2023-06-16T21:43:49.549Z,100544.63
2023-06-16T21:46:15.870Z,100584.66
2023-06-16T21:48:42.172Z,100605.63
2023-06-16T21:51:08.584Z,100712.97
2023-06-16T21:53:35.554Z,100750.16
2023-06-16T21:56:01.861Z,100586.78
2023-06-16T21:58:28.112Z,100627.75
2023-06-16T22:01:01.925Z,100545.47
2023-06-16T22:03:29.276Z,100577.03
2023-06-16T22:05:55.779Z,100514.56
2023-06-16T22:08:22.281Z,100476.22
2023-06-16T22:10:48.638Z,100436.34
2023-06-16T22:13:14.900Z,100406.56
2023-06-16T22:15:41.461Z,100377.25
2023-06-16T22:18:07.787Z,100442.56
2023-06-16T22:20:34.081Z,100412.28
2023-06-16T22:23:00.825Z,100402.19
2023-06-16T22:28:10.192Z,100386.88
2023-06-16T22:30:36.572Z,100359.72
2023-06-16T22:33:02.965Z,100361.59
2023-06-16T22:35:29.294Z,100354.75
2023-06-16T22:37:55.589Z,100362.44
2023-06-16T22:40:22.192Z,100379.03
2023-06-16T22:42:48.793Z,100379.31
2023-06-16T22:45:15.165Z,100418.88
2023-06-16T22:47:41.509Z,100485.28
2023-06-16T22:50:08.094Z,100522.00
2023-06-16T22:55:14.576Z,100483.19
2023-06-16T22:57:40.873Z,100484.50
2023-06-16T23:00:07.375Z,100459.16
2023-06-16T23:02:33.805Z,100455.22
2023-06-16T23:05:00.264Z,100449.41
2023-06-16T23:07:26.623Z,100417.50
2023-06-16T23:09:52.898Z,100643.59
2023-06-16T23:12:19.173Z,100616.56
2023-06-16T23:14:45.588Z,100486.69
2023-06-16T23:17:11.890Z,100400.94
2023-06-16T23:19:38.172Z,100383.97
2023-06-16T23:22:04.573Z,100373.09
2023-06-16T23:24:31.019Z,100413.25
2023-06-16T23:26:57.399Z,100410.66
2023-06-16T23:29:23.681Z,100427.13
2023-06-16T23:31:49.954Z,100458.19
2023-06-16T23:34:16.240Z,100455.28
2023-06-16T23:36:42.537Z,100433.03
2023-06-16T23:39:08.952Z,100429.16
2023-06-16T23:41:35.496Z,100428.97
2023-06-16T23:44:01.884Z,100438.13
2023-06-16T23:46:28.272Z,100535.09
2023-06-16T23:48:54.684Z,100485.59
2023-06-16T23:51:21.020Z,100419.50
2023-06-16T23:53:47.707Z,100400.81
2023-06-16T23:56:14.275Z,100407.94
2023-06-16T23:58:40.577Z,100401.41
